sensor_id;sensor_type;location;lat;lon;timestamp;pressure;altitude;pressure_sealevel;temperature;humidity
42847;BME280;28495;49.916;14.536;2023-06-14T00:01:08;96664.44;;;14.23;56.15
42847;BME280;28495;49.916;14.536;2023-06-14T00:06:30;96677.06;;;14.20;56.38
42847;BME280;28495;49.916;14.536;2023-06-14T00:11:51;96680.50;;;14.03;56.10
42847;BME280;28495;49.916;14.536;2023-06-14T00:17:12;96689.84;;;13.98;56.53
42847;BME280;28495;49.916;14.536;2023-06-14T00:22:34;96692.66;;;13.96;56.72
42847;BME280;28495;49.916;14.536;2023-06-14T00:27:57;96686.72;;;14.02;56.55
42847;BME280;28495;49.916;14.536;2023-06-14T00:33:18;96683.97;;;14.04;56.72
42847;BME280;28495;49.916;14.536;2023-06-14T00:38:39;96679.53;;;13.96;56.40
42847;BME280;28495;49.916;14.536;2023-06-14T00:44:02;96676.06;;;13.79;56.53
42847;BME280;28495;49.916;14.536;2023-06-14T00:49:24;96675.94;;;13.81;57.23
42847;BME280;28495;49.916;14.536;2023-06-14T00:54:45;96687.03;;;13.75;56.71
42847;BME280;28495;49.916;14.536;2023-06-14T01:00:07;96688.34;;;13.70;57.12
42847;BME280;28495;49.916;14.536;2023-06-14T01:05:30;96679.69;;;13.70;57.31
42847;BME280;28495;49.916;14.536;2023-06-14T01:10:56;96684.75;;;13.71;57.21
42847;BME280;28495;49.916;14.536;2023-06-14T01:16:22;96674.78;;;13.75;57.26
42847;BME280;28495;49.916;14.536;2023-06-14T01:21:43;96667.91;;;13.74;56.97
42847;BME280;28495;49.916;14.536;2023-06-14T01:27:05;96678.66;;;13.63;56.65
42847;BME280;28495;49.916;14.536;2023-06-14T01:32:26;96679.16;;;13.58;56.85
42847;BME280;28495;49.916;14.536;2023-06-14T01:37:49;96678.50;;;13.48;56.66
42847;BME280;28495;49.916;14.536;2023-06-14T01:43:15;96682.09;;;13.55;56.88
42847;BME280;28495;49.916;14.536;2023-06-14T01:48:36;96683.06;;;13.54;56.69
42847;BME280;28495;49.916;14.536;2023-06-14T01:53:57;96684.53;;;13.48;56.68
42847;BME280;28495;49.916;14.536;2023-06-14T01:59:19;96681.47;;;13.61;56.94
42847;BME280;28495;49.916;14.536;2023-06-14T02:04:39;96678.53;;;13.72;56.60
42847;BME280;28495;49.916;14.536;2023-06-14T02:10:00;96680.88;;;13.33;56.22
42847;BME280;28495;49.916;14.536;2023-06-14T02:15:21;96672.69;;;13.27;56.83
42847;BME280;28495;49.916;14.536;2023-06-14T02:20:42;96680.72;;;13.34;56.83
42847;BME280;28495;49.916;14.536;2023-06-14T02:26:05;96678.31;;;13.49;56.97
42847;BME280;28495;49.916;14.536;2023-06-14T02:31:27;96672.94;;;13.51;56.65
42847;BME280;28495;49.916;14.536;2023-06-14T02:36:49;96679.59;;;13.37;56.71
42847;BME280;28495;49.916;14.536;2023-06-14T02:42:10;96682.81;;;13.22;56.99
42847;BME280;28495;49.916;14.536;2023-06-14T02:47:31;96681.16;;;13.13;57.09
42847;BME280;28495;49.916;14.536;2023-06-14T02:52:51;96681.28;;;13.11;57.30
42847;BME280;28495;49.916;14.536;2023-06-14T02:58:14;96678.19;;;13.08;57.26
42847;BME280;28495;49.916;14.536;2023-06-14T03:03:34;96681.47;;;13.10;57.63
42847;BME280;28495;49.916;14.536;2023-06-14T03:09:00;96684.22;;;13.08;57.43
42847;BME280;28495;49.916;14.536;2023-06-14T03:14:25;96683.72;;;12.96;57.51
42847;BME280;28495;49.916;14.536;2023-06-14T03:19:47;96678.41;;;12.88;57.18
42847;BME280;28495;49.916;14.536;2023-06-14T03:25:09;96682.94;;;12.70;57.79
42847;BME280;28495;49.916;14.536;2023-06-14T03:30:33;96682.97;;;12.78;58.08
42847;BME280;28495;49.916;14.536;2023-06-14T03:35:55;96691.50;;;12.80;57.89
42847;BME280;28495;49.916;14.536;2023-06-14T03:41:17;96708.66;;;12.83;58.00
42847;BME280;28495;49.916;14.536;2023-06-14T03:46:39;96710.06;;;12.69;58.20
42847;BME280;28495;49.916;14.536;2023-06-14T03:51:59;96718.06;;;12.67;58.20
42847;BME280;28495;49.916;14.536;2023-06-14T03:57:21;96715.75;;;12.64;58.51
42847;BME280;28495;49.916;14.536;2023-06-14T04:02:43;96719.78;;;12.76;58.55
42847;BME280;28495;49.916;14.536;2023-06-14T04:08:08;96720.31;;;12.88;58.65
42847;BME280;28495;49.916;14.536;2023-06-14T04:13:30;96735.78;;;13.08;58.81
42847;BME280;28495;49.916;14.536;2023-06-14T04:18:52;96748.59;;;13.19;58.68
42847;BME280;28495;49.916;14.536;2023-06-14T04:24:13;96745.66;;;13.22;58.56
42847;BME280;28495;49.916;14.536;2023-06-14T04:29:37;96754.09;;;13.08;58.29
42847;BME280;28495;49.916;14.536;2023-06-14T04:35:08;96752.38;;;12.90;58.63
42847;BME280;28495;49.916;14.536;2023-06-14T04:40:32;96749.19;;;13.05;59.19
42847;BME280;28495;49.916;14.536;2023-06-14T04:45:54;96755.03;;;13.76;59.46
42847;BME280;28495;49.916;14.536;2023-06-14T04:51:18;96753.78;;;14.30;58.46
42847;BME280;28495;49.916;14.536;2023-06-14T04:56:42;96747.22;;;14.42;57.97
42847;BME280;28495;49.916;14.536;2023-06-14T05:02:05;96735.69;;;14.93;58.62
42847;BME280;28495;49.916;14.536;2023-06-14T05:07:27;96727.81;;;15.64;58.52
42847;BME280;28495;49.916;14.536;2023-06-14T05:12:49;96734.59;;;16.13;57.77
42847;BME280;28495;49.916;14.536;2023-06-14T05:18:12;96735.91;;;16.71;57.44
42847;BME280;28495;49.916;14.536;2023-06-14T05:23:34;96736.41;;;17.04;56.90
42847;BME280;28495;49.916;14.536;2023-06-14T05:28:58;96741.03;;;17.17;56.39
42847;BME280;28495;49.916;14.536;2023-06-14T05:34:21;96751.47;;;17.26;56.94
42847;BME280;28495;49.916;14.536;2023-06-14T05:39:42;96750.06;;;17.08;55.53
42847;BME280;28495;49.916;14.536;2023-06-14T05:45:03;96761.22;;;16.34;55.80
42847;BME280;28495;49.916;14.536;2023-06-14T05:50:25;96759.72;;;15.93;55.96
42847;BME280;28495;49.916;14.536;2023-06-14T05:55:46;96758.63;;;15.79;56.86
42847;BME280;28495;49.916;14.536;2023-06-14T06:01:07;96766.97;;;15.91;56.87
42847;BME280;28495;49.916;14.536;2023-06-14T06:06:28;96766.97;;;16.37;56.46
42847;BME280;28495;49.916;14.536;2023-06-14T06:11:49;96770.91;;;16.95;56.53
42847;BME280;28495;49.916;14.536;2023-06-14T06:17:14;96770.00;;;17.47;56.33
42847;BME280;28495;49.916;14.536;2023-06-14T06:22:35;96780.19;;;18.02;55.77
42847;BME280;28495;49.916;14.536;2023-06-14T06:27:55;96779.16;;;18.68;55.74
42847;BME280;28495;49.916;14.536;2023-06-14T06:33:17;96781.84;;;18.75;54.21
42847;BME280;28495;49.916;14.536;2023-06-14T06:38:38;96790.63;;;18.10;53.92
42847;BME280;28495;49.916;14.536;2023-06-14T06:43:59;96804.75;;;18.03;54.42
42847;BME280;28495;49.916;14.536;2023-06-14T06:49:22;96807.97;;;18.41;54.56
42847;BME280;28495;49.916;14.536;2023-06-14T06:54:42;96819.16;;;18.22;54.43
42847;BME280;28495;49.916;14.536;2023-06-14T07:00:04;96817.03;;;18.10;55.10
42847;BME280;28495;49.916;14.536;2023-06-14T07:05:29;96822.03;;;18.49;55.27
42847;BME280;28495;49.916;14.536;2023-06-14T07:10:50;96831.50;;;18.58;55.29
42847;BME280;28495;49.916;14.536;2023-06-14T07:16:11;96836.63;;;18.66;54.76
42847;BME280;28495;49.916;14.536;2023-06-14T07:21:31;96835.97;;;19.08;54.98
42847;BME280;28495;49.916;14.536;2023-06-14T07:26:52;96849.63;;;19.11;53.87
42847;BME280;28495;49.916;14.536;2023-06-14T07:32:13;96846.56;;;19.43;54.30
42847;BME280;28495;49.916;14.536;2023-06-14T07:37:34;96855.78;;;19.54;53.38
42847;BME280;28495;49.916;14.536;2023-06-14T07:42:55;96851.19;;;19.69;53.10
42847;BME280;28495;49.916;14.536;2023-06-14T07:48:16;96854.44;;;19.64;53.05
42847;BME280;28495;49.916;14.536;2023-06-14T07:53:37;96851.22;;;19.76;52.32
42847;BME280;28495;49.916;14.536;2023-06-14T07:58:58;96855.25;;;19.72;51.79
42847;BME280;28495;49.916;14.536;2023-06-14T08:04:18;96854.00;;;19.68;51.21
42847;BME280;28495;49.916;14.536;2023-06-14T08:09:40;96854.44;;;19.64;51.78
42847;BME280;28495;49.916;14.536;2023-06-14T08:15:01;96854.88;;;19.75;50.84
42847;BME280;28495;49.916;14.536;2023-06-14T08:20:28;96855.09;;;19.73;50.97
42847;BME280;28495;49.916;14.536;2023-06-14T08:25:51;96855.81;;;19.95;50.46
42847;BME280;28495;49.916;14.536;2023-06-14T08:31:12;96861.34;;;19.65;50.03
42847;BME280;28495;49.916;14.536;2023-06-14T08:36:33;96857.53;;;19.40;49.73
42847;BME280;28495;49.916;14.536;2023-06-14T08:41:56;96871.50;;;19.27;49.55
42847;BME280;28495;49.916;14.536;2023-06-14T08:47:18;96867.50;;;19.44;50.06
42847;BME280;28495;49.916;14.536;2023-06-14T08:52:44;96867.41;;;19.59;49.53
42847;BME280;28495;49.916;14.536;2023-06-14T08:58:11;96875.09;;;19.54;49.01
42847;BME280;28495;49.916;14.536;2023-06-14T09:03:35;96861.78;;;19.69;50.29
42847;BME280;28495;49.916;14.536;2023-06-14T09:09:02;96874.13;;;19.97;49.73
42847;BME280;28495;49.916;14.536;2023-06-14T09:14:24;96877.09;;;19.80;48.76
42847;BME280;28495;49.916;14.536;2023-06-14T09:19:46;96878.13;;;19.86;49.36
42847;BME280;28495;49.916;14.536;2023-06-14T09:25:07;96881.03;;;19.91;48.76
42847;BME280;28495;49.916;14.536;2023-06-14T09:30:28;96881.75;;;19.78;49.14
42847;BME280;28495;49.916;14.536;2023-06-14T09:35:52;96882.38;;;19.80;49.30
42847;BME280;28495;49.916;14.536;2023-06-14T09:41:13;96875.22;;;19.74;49.22
42847;BME280;28495;49.916;14.536;2023-06-14T09:46:36;96877.69;;;19.76;49.47
42847;BME280;28495;49.916;14.536;2023-06-14T09:51:58;96872.63;;;19.81;48.61
42847;BME280;28495;49.916;14.536;2023-06-14T09:57:23;96875.84;;;19.76;48.42
42847;BME280;28495;49.916;14.536;2023-06-14T10:02:49;96876.81;;;19.69;48.54
42847;BME280;28495;49.916;14.536;2023-06-14T10:08:19;96873.59;;;19.73;48.54
42847;BME280;28495;49.916;14.536;2023-06-14T10:13:40;96870.03;;;19.88;48.53
42847;BME280;28495;49.916;14.536;2023-06-14T10:19:13;96856.94;;;19.79;48.08
42847;BME280;28495;49.916;14.536;2023-06-14T10:24:42;96863.34;;;19.57;48.28
42847;BME280;28495;49.916;14.536;2023-06-14T10:30:05;96866.09;;;19.42;48.40
42847;BME280;28495;49.916;14.536;2023-06-14T10:35:26;96870.81;;;19.18;48.48
42847;BME280;28495;49.916;14.536;2023-06-14T10:40:52;96864.44;;;19.06;48.63
42847;BME280;28495;49.916;14.536;2023-06-14T10:46:18;96861.63;;;18.92;48.35
42847;BME280;28495;49.916;14.536;2023-06-14T10:51:42;96860.63;;;18.93;48.90
42847;BME280;28495;49.916;14.536;2023-06-14T10:57:10;96852.31;;;19.18;48.79
42847;BME280;28495;49.916;14.536;2023-06-14T11:02:46;96855.50;;;19.42;48.70
42847;BME280;28495;49.916;14.536;2023-06-14T11:13:45;96862.06;;;19.17;47.43
42847;BME280;28495;49.916;14.536;2023-06-14T11:19:08;96861.22;;;19.10;47.61
42847;BME280;28495;49.916;14.536;2023-06-14T11:24:32;96849.34;;;19.28;47.98
42847;BME280;28495;49.916;14.536;2023-06-14T11:29:53;96848.03;;;19.52;47.53
42847;BME280;28495;49.916;14.536;2023-06-14T11:35:15;96841.72;;;19.53;47.96
42847;BME280;28495;49.916;14.536;2023-06-14T11:40:38;96837.94;;;19.62;47.83
42847;BME280;28495;49.916;14.536;2023-06-14T11:45:59;96840.09;;;19.52;46.96
42847;BME280;28495;49.916;14.536;2023-06-14T11:51:26;96839.50;;;19.50;47.09
42847;BME280;28495;49.916;14.536;2023-06-14T11:56:48;96825.31;;;19.64;46.55
42847;BME280;28495;49.916;14.536;2023-06-14T12:02:10;96826.78;;;19.74;47.42
42847;BME280;28495;49.916;14.536;2023-06-14T12:07:34;96822.69;;;19.64;46.53
42847;BME280;28495;49.916;14.536;2023-06-14T12:12:57;96813.72;;;19.65;46.56
42847;BME280;28495;49.916;14.536;2023-06-14T12:18:19;96812.69;;;19.67;46.48
42847;BME280;28495;49.916;14.536;2023-06-14T12:23:46;96814.31;;;19.68;46.19
42847;BME280;28495;49.916;14.536;2023-06-14T12:29:08;96809.38;;;19.93;46.35
42847;BME280;28495;49.916;14.536;2023-06-14T12:34:29;96805.13;;;20.05;45.94
42847;BME280;28495;49.916;14.536;2023-06-14T12:39:51;96811.22;;;19.99;45.26
42847;BME280;28495;49.916;14.536;2023-06-14T12:45:12;96811.34;;;19.84;45.37
42847;BME280;28495;49.916;14.536;2023-06-14T12:50:34;96814.97;;;19.76;45.83
42847;BME280;28495;49.916;14.536;2023-06-14T12:55:55;96819.50;;;19.83;45.86
42847;BME280;28495;49.916;14.536;2023-06-14T13:01:16;96813.38;;;19.82;45.46
42847;BME280;28495;49.916;14.536;2023-06-14T13:06:37;96809.88;;;19.68;45.39
42847;BME280;28495;49.916;14.536;2023-06-14T13:11:58;96806.84;;;19.71;45.83
42847;BME280;28495;49.916;14.536;2023-06-14T13:17:19;96813.78;;;19.79;46.13
42847;BME280;28495;49.916;14.536;2023-06-14T13:22:41;96818.75;;;19.89;45.92
42847;BME280;28495;49.916;14.536;2023-06-14T13:28:03;96817.31;;;20.00;45.87
42847;BME280;28495;49.916;14.536;2023-06-14T13:33:24;96818.31;;;19.92;46.00
42847;BME280;28495;49.916;14.536;2023-06-14T13:38:45;96821.38;;;19.89;45.84
42847;BME280;28495;49.916;14.536;2023-06-14T13:44:08;96820.28;;;19.83;45.97
42847;BME280;28495;49.916;14.536;2023-06-14T13:49:34;96823.50;;;19.72;46.48
42847;BME280;28495;49.916;14.536;2023-06-14T13:54:56;96821.22;;;19.62;46.36
42847;BME280;28495;49.916;14.536;2023-06-14T14:00:17;96831.34;;;19.52;46.43
42847;BME280;28495;49.916;14.536;2023-06-14T14:05:42;96836.56;;;19.38;46.07
42847;BME280;28495;49.916;14.536;2023-06-14T14:11:03;96826.97;;;19.30;46.13
42847;BME280;28495;49.916;14.536;2023-06-14T14:16:24;96827.09;;;19.22;46.07
42847;BME280;28495;49.916;14.536;2023-06-14T14:21:45;96835.06;;;19.29;46.28
42847;BME280;28495;49.916;14.536;2023-06-14T14:27:06;96833.28;;;19.29;45.67
42847;BME280;28495;49.916;14.536;2023-06-14T14:32:27;96834.44;;;19.20;45.98
42847;BME280;28495;49.916;14.536;2023-06-14T14:37:48;96837.94;;;19.27;45.84
42847;BME280;28495;49.916;14.536;2023-06-14T14:43:09;96842.63;;;19.32;46.70
42847;BME280;28495;49.916;14.536;2023-06-14T14:48:31;96840.56;;;19.27;46.81
42847;BME280;28495;49.916;14.536;2023-06-14T14:53:52;96842.75;;;19.17;46.81
42847;BME280;28495;49.916;14.536;2023-06-14T14:59:15;96838.84;;;19.13;47.12
42847;BME280;28495;49.916;14.536;2023-06-14T15:04:36;96839.09;;;19.18;47.34
42847;BME280;28495;49.916;14.536;2023-06-14T15:09:57;96840.16;;;19.24;47.07
42847;BME280;28495;49.916;14.536;2023-06-14T15:15:18;96847.25;;;19.23;46.56
42847;BME280;28495;49.916;14.536;2023-06-14T15:20:39;96844.81;;;19.22;47.04
42847;BME280;28495;49.916;14.536;2023-06-14T15:26:01;96846.19;;;19.17;46.72
42847;BME280;28495;49.916;14.536;2023-06-14T15:31:22;96835.03;;;19.22;46.41
42847;BME280;28495;49.916;14.536;2023-06-14T15:36:46;96830.25;;;19.32;46.60
42847;BME280;28495;49.916;14.536;2023-06-14T15:42:08;96826.72;;;19.25;46.09
42847;BME280;28495;49.916;14.536;2023-06-14T15:47:28;96834.56;;;19.12;45.45
42847;BME280;28495;49.916;14.536;2023-06-14T15:52:50;96828.69;;;19.16;46.17
42847;BME280;28495;49.916;14.536;2023-06-14T15:58:12;96832.41;;;19.22;46.53
42847;BME280;28495;49.916;14.536;2023-06-14T16:03:33;96830.63;;;19.29;46.51
42847;BME280;28495;49.916;14.536;2023-06-14T16:08:54;96838.56;;;19.29;45.35
42847;BME280;28495;49.916;14.536;2023-06-14T16:14:16;96829.41;;;19.32;45.67
42847;BME280;28495;49.916;14.536;2023-06-14T16:19:37;96837.13;;;19.27;44.97
42847;BME280;28495;49.916;14.536;2023-06-14T16:24:58;96835.44;;;19.19;45.21
42847;BME280;28495;49.916;14.536;2023-06-14T16:30:19;96842.59;;;19.25;45.20
42847;BME280;28495;49.916;14.536;2023-06-14T16:35:40;96840.75;;;19.19;44.92
42847;BME280;28495;49.916;14.536;2023-06-14T16:41:02;96850.34;;;18.98;44.84
42847;BME280;28495;49.916;14.536;2023-06-14T16:46:33;96852.59;;;19.01;45.55
42847;BME280;28495;49.916;14.536;2023-06-14T16:51:54;96857.72;;;19.10;45.39
42847;BME280;28495;49.916;14.536;2023-06-14T16:57:15;96859.56;;;19.09;45.09
42847;BME280;28495;49.916;14.536;2023-06-14T17:02:36;96865.28;;;19.13;45.82
42847;BME280;28495;49.916;14.536;2023-06-14T17:07:58;96862.63;;;19.13;45.66
42847;BME280;28495;49.916;14.536;2023-06-14T17:13:22;96864.28;;;19.14;45.31
42847;BME280;28495;49.916;14.536;2023-06-14T17:18:44;96865.53;;;19.18;45.25
42847;BME280;28495;49.916;14.536;2023-06-14T17:24:05;96866.03;;;19.07;44.77
42847;BME280;28495;49.916;14.536;2023-06-14T17:29:44;96872.69;;;18.96;45.51
42847;BME280;28495;49.916;14.536;2023-06-14T17:35:05;96877.13;;;18.95;45.10
42847;BME280;28495;49.916;14.536;2023-06-14T17:40:26;96872.88;;;18.94;45.76
42847;BME280;28495;49.916;14.536;2023-06-14T17:46:05;96880.03;;;18.79;46.06
42847;BME280;28495;49.916;14.536;2023-06-14T17:51:27;96879.53;;;18.68;46.53
42847;BME280;28495;49.916;14.536;2023-06-14T17:56:48;96881.69;;;18.58;47.04
42847;BME280;28495;49.916;14.536;2023-06-14T18:02:09;96888.34;;;18.54;47.37
42847;BME280;28495;49.916;14.536;2023-06-14T18:07:30;96895.19;;;18.48;47.68
42847;BME280;28495;49.916;14.536;2023-06-14T18:12:50;96895.34;;;18.47;47.96
42847;BME280;28495;49.916;14.536;2023-06-14T18:18:11;96886.72;;;18.38;48.03
42847;BME280;28495;49.916;14.536;2023-06-14T18:23:34;96894.56;;;18.31;48.24
42847;BME280;28495;49.916;14.536;2023-06-14T18:28:55;96894.25;;;18.19;48.34
42847;BME280;28495;49.916;14.536;2023-06-14T18:34:17;96894.63;;;18.16;48.55
42847;BME280;28495;49.916;14.536;2023-06-14T18:39:37;96894.19;;;18.12;48.82
42847;BME280;28495;49.916;14.536;2023-06-14T18:44:58;96902.09;;;18.12;48.86
42847;BME280;28495;49.916;14.536;2023-06-14T18:50:19;96891.84;;;18.03;48.85
42847;BME280;28495;49.916;14.536;2023-06-14T18:55:40;96899.56;;;17.89;48.88
42847;BME280;28495;49.916;14.536;2023-06-14T19:01:04;96901.94;;;17.69;48.95
42847;BME280;28495;49.916;14.536;2023-06-14T19:06:25;96902.47;;;17.49;49.15
42847;BME280;28495;49.916;14.536;2023-06-14T19:11:46;96910.28;;;17.43;50.21
42847;BME280;28495;49.916;14.536;2023-06-14T19:17:08;96923.38;;;17.36;49.41
42847;BME280;28495;49.916;14.536;2023-06-14T19:22:29;96922.88;;;17.17;49.33
42847;BME280;28495;49.916;14.536;2023-06-14T19:27:50;96926.16;;;17.19;49.61
42847;BME280;28495;49.916;14.536;2023-06-14T19:33:11;96934.50;;;17.23;49.78
42847;BME280;28495;49.916;14.536;2023-06-14T19:38:33;96945.50;;;17.27;49.57
42847;BME280;28495;49.916;14.536;2023-06-14T19:43:55;96938.88;;;17.16;49.73
42847;BME280;28495;49.916;14.536;2023-06-14T19:49:17;96949.47;;;17.08;49.75
42847;BME280;28495;49.916;14.536;2023-06-14T19:54:39;96951.44;;;17.05;50.05
42847;BME280;28495;49.916;14.536;2023-06-14T20:00:00;96963.16;;;17.03;50.21
42847;BME280;28495;49.916;14.536;2023-06-14T20:05:27;96958.25;;;17.00;50.17
42847;BME280;28495;49.916;14.536;2023-06-14T20:10:48;96970.63;;;16.91;50.31
42847;BME280;28495;49.916;14.536;2023-06-14T20:16:09;96976.38;;;16.95;50.47
42847;BME280;28495;49.916;14.536;2023-06-14T20:21:31;96987.38;;;16.75;49.92
42847;BME280;28495;49.916;14.536;2023-06-14T20:26:52;96981.81;;;16.38;50.25
42847;BME280;28495;49.916;14.536;2023-06-14T20:32:12;96983.53;;;16.14;50.70
42847;BME280;28495;49.916;14.536;2023-06-14T20:37:34;96990.81;;;16.04;50.82
42847;BME280;28495;49.916;14.536;2023-06-14T20:42:55;96990.47;;;15.99;51.07
42847;BME280;28495;49.916;14.536;2023-06-14T20:48:18;96989.34;;;15.93;51.31
42847;BME280;28495;49.916;14.536;2023-06-14T20:53:39;96987.19;;;15.97;51.48
42847;BME280;28495;49.916;14.536;2023-06-14T20:59:00;96994.09;;;16.06;51.59
42847;BME280;28495;49.916;14.536;2023-06-14T21:04:21;96980.94;;;16.06;51.60
42847;BME280;28495;49.916;14.536;2023-06-14T21:09:42;96985.81;;;16.18;51.66
42847;BME280;28495;49.916;14.536;2023-06-14T21:15:03;96977.84;;;16.03;51.72
42847;BME280;28495;49.916;14.536;2023-06-14T21:20:25;96983.63;;;15.90;51.59
42847;BME280;28495;49.916;14.536;2023-06-14T21:25:46;96986.06;;;15.83;51.84
42847;BME280;28495;49.916;14.536;2023-06-14T21:31:07;96986.41;;;15.80;51.76
42847;BME280;28495;49.916;14.536;2023-06-14T21:36:28;96976.38;;;15.75;52.05
42847;BME280;28495;49.916;14.536;2023-06-14T21:41:52;96983.31;;;15.60;52.20
42847;BME280;28495;49.916;14.536;2023-06-14T21:47:15;96975.41;;;15.76;52.62
42847;BME280;28495;49.916;14.536;2023-06-14T21:52:36;96976.72;;;15.72;52.40
42847;BME280;28495;49.916;14.536;2023-06-14T21:57:57;96979.03;;;15.59;52.35
42847;BME280;28495;49.916;14.536;2023-06-14T22:03:18;96981.03;;;15.48;52.45
42847;BME280;28495;49.916;14.536;2023-06-14T22:08:39;96983.16;;;15.45;52.42
42847;BME280;28495;49.916;14.536;2023-06-14T22:14:02;96985.97;;;15.35;52.39
42847;BME280;28495;49.916;14.536;2023-06-14T22:19:23;96986.63;;;15.29;52.67
42847;BME280;28495;49.916;14.536;2023-06-14T22:24:44;96983.81;;;15.30;52.75
42847;BME280;28495;49.916;14.536;2023-06-14T22:30:05;96989.41;;;15.35;52.79
42847;BME280;28495;49.916;14.536;2023-06-14T22:35:26;96989.91;;;15.22;52.63
42847;BME280;28495;49.916;14.536;2023-06-14T22:40:47;96986.94;;;15.09;52.57
42847;BME280;28495;49.916;14.536;2023-06-14T22:46:10;96992.69;;;15.04;53.30
42847;BME280;28495;49.916;14.536;2023-06-14T22:51:40;96994.16;;;15.07;53.10
42847;BME280;28495;49.916;14.536;2023-06-14T22:57:03;96989.88;;;14.81;52.87
42847;BME280;28495;49.916;14.536;2023-06-14T23:02:26;96979.38;;;14.81;53.49
42847;BME280;28495;49.916;14.536;2023-06-14T23:07:47;96984.44;;;14.74;53.17
42847;BME280;28495;49.916;14.536;2023-06-14T23:13:08;96986.50;;;14.54;53.54
42847;BME280;28495;49.916;14.536;2023-06-14T23:18:29;96978.94;;;14.51;53.50
42847;BME280;28495;49.916;14.536;2023-06-14T23:23:50;96978.94;;;14.51;53.89
42847;BME280;28495;49.916;14.536;2023-06-14T23:29:15;96978.28;;;14.49;54.11
42847;BME280;28495;49.916;14.536;2023-06-14T23:34:39;96972.56;;;14.54;54.16
42847;BME280;28495;49.916;14.536;2023-06-14T23:40:03;96971.13;;;14.59;54.22
42847;BME280;28495;49.916;14.536;2023-06-14T23:45:25;96968.81;;;14.64;54.34
42847;BME280;28495;49.916;14.536;2023-06-14T23:50:49;96953.13;;;14.73;54.23
42847;BME280;28495;49.916;14.536;2023-06-14T23:56:10;96956.72;;;14.72;54.15
